.
WxDataArchive / Data Records for 2007-05-14
2007-05-13 May 2007 2007-05-15

Data Records for Monday, 14 May 2007

Time	Temp	Chill	HIndex	Humid	Dewpt	 Wind 	HiWind	WindDir	Rain 	Barom 
-----	----	-----	------	-----	-----	------	------	-------	-----	----- 
00:00	48.9	48.9	48.9	46	29.0	0	1	68	0.00	30.176 
00:05	48.8	48.8	48.8	48	30.0	0	1	68	0.00	30.171 
00:10	48.5	48.5	48.5	49	30.2	0	0	---	0.00	30.170 
00:15	48.0	48.0	48.0	48	29.3	0	0	---	0.00	30.172 
00:20	47.6	47.6	47.6	50	29.9	0	0	---	0.00	30.174 
00:25	47.3	47.3	47.3	50	29.6	0	0	---	0.00	30.175 
00:30	47.0	47.0	47.0	53	30.8	0	0	---	0.00	30.167 
00:35	46.7	46.7	46.7	54	30.9	0	0	---	0.00	30.166 
00:40	46.4	46.4	46.4	54	30.7	0	0	---	0.00	30.169 
00:45	46.1	46.1	46.1	54	30.4	0	0	---	0.00	30.174 
00:50	45.8	45.8	45.8	53	29.7	0	0	---	0.00	30.176 
00:55	45.7	45.7	45.7	54	30.0	0	0	---	0.00	30.173 
01:00	45.7	45.7	45.7	57	31.3	0	0	---	0.00	30.167 
01:05	45.5	45.5	45.5	58	31.6	0	0	---	0.00	30.166 
01:10	45.4	45.4	45.4	60	32.3	0	0	---	0.00	30.166 
01:15	45.2	45.2	45.2	61	32.6	0	0	---	0.00	30.164 
01:20	44.9	44.9	44.9	60	31.9	0	0	---	0.00	30.165 
01:25	44.8	44.8	44.8	62	32.6	0	0	---	0.00	30.161 
01:30	44.6	44.6	44.6	63	32.8	0	0	---	0.00	30.157 
01:35	44.5	44.5	44.5	64	33.1	0	0	---	0.00	30.157 
01:40	44.3	44.3	44.3	64	32.9	0	0	---	0.00	30.160 
01:45	44.3	44.3	44.3	59	30.9	0	1	68	0.00	30.160 
01:50	44.8	44.8	44.8	55	29.6	0	1	68	0.00	30.156 
01:55	45.1	45.1	45.1	56	30.4	0	1	68	0.00	30.154 
02:00	45.4	45.4	45.4	53	29.3	0	1	68	0.00	30.148 
02:05	45.7	45.7	45.7	53	29.6	0	1	68	0.00	30.145 
02:10	45.7	45.7	45.7	55	30.5	0	1	68	0.00	30.147 
02:15	45.5	45.5	45.5	57	31.2	0	1	68	0.00	30.149 
02:20	45.5	45.5	45.5	54	29.8	0	1	68	0.00	30.149 
02:25	45.4	45.4	45.4	54	29.7	0	1	68	0.00	30.148 
02:30	45.4	45.4	45.4	54	29.7	0	1	68	0.00	30.147 
02:35	45.4	45.4	45.4	55	30.2	0	1	68	0.00	30.147 
02:40	45.2	45.2	45.2	56	30.4	0	0	---	0.00	30.146 
02:45	44.9	44.9	44.9	55	29.7	0	0	---	0.00	30.145 
02:50	44.6	44.6	44.6	58	30.7	0	0	---	0.00	30.143 
02:55	44.5	44.5	44.5	61	31.9	0	0	---	0.00	30.145 
03:00	44.2	44.2	44.2	60	31.2	0	0	---	0.00	30.146 
03:05	43.9	43.9	43.9	59	30.5	0	0	---	0.00	30.144 
03:10	43.6	43.6	43.6	60	30.6	0	0	---	0.00	30.145 
03:15	43.5	43.5	43.5	61	31.0	0	0	---	0.00	30.136 
03:20	43.5	43.5	43.5	64	32.1	0	0	---	0.00	30.137 
03:25	43.3	43.3	43.3	63	31.6	0	0	---	0.00	30.135 
03:30	43.1	43.1	43.1	64	31.8	0	0	---	0.00	30.138 
03:35	42.9	42.9	42.9	63	31.2	0	0	---	0.00	30.135 
03:40	42.9	42.9	42.9	65	32.0	0	0	---	0.00	30.137 
03:45	42.8	42.8	42.8	67	32.6	0	0	---	0.00	30.137 
03:50	42.6	42.6	42.6	66	32.0	0	0	---	0.00	30.137 
03:55	42.5	42.5	42.5	67	32.3	0	0	---	0.00	30.133 
04:00	42.3	42.3	42.3	68	32.5	0	0	---	0.00	30.132 
04:05	42.2	42.2	42.2	69	32.8	0	0	---	0.00	30.133 
04:10	42.2	42.2	42.2	66	31.7	0	1	68	0.00	30.131 
04:15	42.3	42.3	42.3	66	31.8	0	1	68	0.00	30.131 
04:20	42.3	42.3	42.3	66	31.8	0	0	---	0.00	30.130 
04:25	42.3	42.3	42.3	65	31.4	0	0	---	0.00	30.128 
04:30	42.3	42.3	42.3	66	31.8	0	0	---	0.00	30.129 
04:35	42.5	42.5	42.5	67	32.3	0	1	68	0.00	30.128 
04:40	42.5	42.5	42.5	66	32.0	0	0	---	0.00	30.128 
04:45	42.5	42.5	42.5	67	32.3	0	1	68	0.00	30.126 
04:50	42.5	42.5	42.5	65	31.6	0	1	68	0.00	30.127 
04:55	42.6	42.6	42.6	67	32.4	0	0	---	0.00	30.125 
05:00	42.5	42.5	42.5	66	32.0	0	0	---	0.00	30.125 
05:05	42.3	42.3	42.3	67	32.1	0	0	---	0.00	30.124 
05:10	42.2	42.2	42.2	68	32.4	0	0	---	0.00	30.123 
05:15	42.1	42.1	42.1	69	32.7	0	0	---	0.00	30.123 
05:20	41.8	41.8	41.8	71	33.1	0	0	---	0.00	30.122 
05:25	41.5	41.5	41.5	70	32.5	0	0	---	0.00	30.122 
05:30	41.3	41.3	41.3	72	33.0	0	0	---	0.00	30.126 
05:35	41.2	41.2	41.2	72	32.9	0	0	---	0.00	30.126 
05:40	41.2	41.2	41.2	73	33.2	0	0	---	0.00	30.125 
05:45	41.1	41.1	41.1	73	33.1	0	0	---	0.00	30.124 
05:50	41.1	41.1	41.1	73	33.1	0	0	---	0.00	30.125 
05:55	41.1	41.1	41.1	74	33.5	0	0	---	0.00	30.123 
06:00	41.1	41.1	41.1	74	33.5	0	0	---	0.00	30.121 
06:05	41.2	41.2	41.2	76	34.2	0	0	---	0.00	30.128 
06:10	41.5	41.5	41.5	75	34.2	0	0	---	0.00	30.131 
06:15	41.8	41.8	41.8	75	34.5	0	0	---	0.00	30.128 
06:20	42.3	42.3	42.3	75	35.0	0	0	---	0.00	30.127 
06:25	43.1	43.1	43.1	73	35.0	0	0	---	0.00	30.126 
06:30	43.8	43.8	43.8	71	35.0	0	0	---	0.00	30.123 
06:35	44.8	44.8	44.8	70	35.6	0	0	---	0.00	30.122 
06:40	46.0	46.0	46.0	67	35.7	0	0	---	0.00	30.121 
06:45	47.1	47.1	47.1	68	37.1	0	0	---	0.00	30.124 
06:50	48.5	48.5	48.5	65	37.3	0	0	---	0.00	30.122 
06:55	49.5	49.5	49.5	63	37.4	0	0	---	0.00	30.125 
07:00	50.7	50.7	50.7	61	37.7	0	1	68	0.00	30.125 
07:05	51.7	51.7	51.7	58	37.4	0	0	---	0.00	30.128 
07:10	52.6	52.6	52.6	58	38.2	0	1	68	0.00	30.128 
07:15	52.9	52.9	52.9	59	39.0	0	0	---	0.00	30.127 
07:20	52.9	52.9	52.9	61	39.8	0	0	---	0.00	30.128 
07:25	53.1	53.1	53.1	62	40.4	0	0	---	0.00	30.129 
07:30	53.5	53.5	53.5	59	39.5	0	1	68	0.00	30.128 
07:35	54.1	54.1	54.1	59	40.1	0	1	68	0.00	30.127 
07:40	55.0	55.0	55.0	57	40.0	0	1	68	0.00	30.127 
07:45	55.9	55.9	55.9	58	41.3	0	2	68	0.00	30.126 
07:50	56.9	56.9	56.9	57	41.8	0	1	68	0.00	30.126 
07:55	58.4	58.4	58.4	52	40.8	0	2	68	0.00	30.123 
08:00	59.9	59.9	59.9	49	40.7	0	2	68	0.00	30.123 
08:05	61.2	61.2	61.2	42	37.9	1	3	68	0.00	30.125 
08:10	61.6	61.6	61.6	39	36.4	2	5	248	0.00	30.129 
08:15	62.1	62.1	62.1	44	39.9	0	3	248	0.00	30.131 
08:20	62.4	62.4	62.4	41	38.4	1	3	112	0.00	30.132 
08:25	62.9	62.9	62.9	42	39.5	1	3	248	0.00	30.134 
08:30	63.4	63.4	63.4	41	39.3	1	5	248	0.00	30.135 
08:35	64.0	64.0	64.0	39	38.5	1	4	68	0.00	30.134 
08:40	64.7	64.7	64.7	42	41.1	1	3	248	0.00	30.133 
08:45	65.2	65.2	65.2	34	36.1	1	4	248	0.00	30.131 
08:50	65.3	65.3	65.3	39	39.7	1	3	248	0.00	30.132 
08:55	65.8	65.8	65.8	36	38.1	1	4	248	0.00	30.131 
09:00	66.0	66.0	66.0	37	39.0	1	4	270	0.00	30.131 
09:05	66.4	66.4	66.4	36	38.6	2	4	270	0.00	30.133 
09:10	66.8	66.8	66.8	33	36.8	2	6	248	0.00	30.134 
09:15	67.4	67.4	67.4	34	38.1	1	4	270	0.00	30.135 
09:20	67.8	67.8	67.8	30	35.2	2	9	248	0.00	30.135 
09:25	68.1	68.1	68.1	35	39.4	1	5	248	0.00	30.132 
09:30	68.4	68.4	68.4	30	35.7	2	7	248	0.00	30.133 
09:35	68.6	68.6	68.6	29	35.1	2	6	270	0.00	30.133 
09:40	68.9	68.9	68.9	35	40.1	1	4	248	0.00	30.133 
09:45	69.4	69.4	69.4	27	34.0	2	6	248	0.00	30.132 
09:50	69.8	69.8	69.8	28	35.2	2	5	248	0.00	30.127 
09:55	70.3	70.3	70.3	31	38.2	1	4	270	0.00	30.126 
10:00	70.4	70.4	70.4	26	33.9	3	6	270	0.00	30.124 
10:05	70.4	70.4	70.4	28	35.7	2	5	248	0.00	30.123 
10:10	70.9	70.9	70.9	30	37.9	2	7	248	0.00	30.123 
10:15	71.3	71.3	71.3	32	39.9	2	5	248	0.00	30.120 
10:20	71.1	71.1	71.1	26	34.5	2	6	248	0.00	30.120 
10:25	71.5	71.5	71.5	27	35.8	2	5	248	0.00	30.120 
10:30	71.8	71.8	71.8	26	35.1	1	3	248	0.00	30.118 
10:35	72.1	72.1	72.1	27	36.3	2	4	270	0.00	30.116 
10:40	72.3	72.3	72.3	24	33.5	2	6	248	0.00	30.117 
10:45	73.0	73.0	73.0	28	38.0	1	2	248	0.00	30.114 
10:50	73.3	73.3	73.3	25	35.3	2	5	248	0.00	30.111 
10:55	73.5	73.5	73.5	27	37.5	2	7	90	0.00	30.108 
11:00	73.7	73.7	73.7	23	33.6	1	4	248	0.00	30.106 
11:05	74.4	74.4	74.4	23	34.2	1	2	248	0.00	30.107 
11:10	74.6	74.6	74.6	25	36.4	2	6	248	0.00	30.107 
11:15	74.6	74.6	74.6	25	36.4	2	5	248	0.00	30.109 
11:20	74.2	74.2	74.2	21	31.7	3	9	248	0.00	30.107 
11:25	74.2	74.2	74.2	27	38.1	2	7	270	0.00	30.106 
11:30	74.7	74.7	74.7	27	38.5	1	4	248	0.00	30.105 
11:35	75.3	75.3	76.7	26	38.0	2	7	270	0.00	30.104 
11:40	75.4	75.4	76.8	27	39.1	2	4	292	0.00	30.102 
11:45	75.3	75.3	76.4	23	34.9	3	6	248	0.00	30.101 
11:50	75.4	75.4	76.7	26	38.1	2	4	248	0.00	30.097 
11:55	76.1	76.1	76.8	23	35.6	1	4	248	0.00	30.092 
12:00	76.3	76.3	76.7	21	33.5	3	6	270	0.00	30.092 
12:05	76.3	76.3	76.6	20	32.3	2	9	248	0.00	30.091 
12:10	76.8	76.8	77.5	28	41.2	1	4	270	0.00	30.089 
12:15	77.2	77.2	77.3	23	36.5	2	6	90	0.00	30.089 
12:20	76.8	76.8	76.8	20	32.7	3	7	248	0.00	30.086 
12:25	76.8	76.8	76.8	20	32.7	3	9	248	0.00	30.081 
12:30	77.2	77.2	77.3	23	36.5	1	4	248	0.00	30.075 
12:35	77.6	77.6	77.7	26	40.0	2	9	225	0.00	30.073 
12:40	77.9	77.9	77.6	23	37.1	2	6	248	0.00	30.069 
12:45	77.7	77.7	77.4	22	35.8	3	6	270	0.00	30.069 
12:50	78.1	78.1	77.5	20	33.7	2	6	248	0.00	30.059 
12:55	78.6	78.6	78.0	24	38.8	2	6	248	0.00	30.058 
13:00	78.8	78.8	77.8	18	31.7	2	5	270	0.00	30.056 
13:05	79.0	79.0	78.3	25	40.2	2	7	112	0.00	30.054 
13:10	79.8	79.8	78.8	25	40.8	1	4	270	0.00	30.052 
13:15	79.8	79.8	78.4	18	32.5	3	7	270	0.00	30.050 
13:20	79.4	79.4	78.3	21	36.0	2	6	270	0.00	30.043 
13:25	79.2	79.2	78.1	20	34.7	3	8	68	0.00	30.041 
13:30	79.8	79.8	78.5	20	35.1	1	5	225	0.00	30.039 
13:35	80.1	80.1	78.6	20	35.4	2	9	248	0.00	30.037 
13:40	80.1	80.1	78.6	19	34.1	2	9	270	0.00	30.034 
13:45	80.5	80.5	78.9	20	35.7	2	5	248	0.00	30.024 
13:50	80.7	80.7	78.9	18	33.2	2	8	248	0.00	30.023 
13:55	80.9	80.9	79.2	22	38.5	2	5	248	0.00	30.022 
14:00	81.1	81.1	79.4	23	39.8	3	6	112	0.00	30.018 
14:05	81.1	81.1	79.4	23	39.8	2	5	270	0.00	30.015 
14:10	81.2	81.2	79.3	19	35.0	3	9	248	0.00	30.012 
14:15	81.2	81.2	79.4	21	37.5	3	9	248	0.00	30.009 
14:20	81.4	81.4	79.4	18	33.8	3	6	248	0.00	30.008 
14:25	81.4	81.4	79.5	21	37.7	3	9	270	0.00	30.008 
14:30	81.6	81.6	79.6	21	37.9	3	9	248	0.00	30.004 
14:35	82.2	82.2	80.1	22	39.5	2	5	248	0.00	30.004 
14:40	82.2	82.2	80.0	20	37.1	3	9	248	0.00	30.004 
14:45	82.2	82.2	80.0	21	38.4	3	7	248	0.00	29.999 
14:50	82.0	82.0	79.9	20	36.9	3	7	248	0.00	30.001 
14:55	82.2	82.2	80.0	20	37.1	3	10	112	0.00	29.993 
15:00	82.4	82.4	80.1	20	37.3	3	6	248	0.00	29.991 
15:05	82.6	82.6	80.4	22	39.9	2	5	68	0.00	29.991 
15:10	82.8	82.8	80.5	21	38.9	2	7	292	0.00	29.990 
15:15	83.0	83.0	80.5	19	36.5	2	4	270	0.00	29.989 
15:20	82.8	82.8	80.4	20	37.6	2	7	248	0.00	29.985 
15:25	83.0	83.0	80.5	19	36.5	3	7	248	0.00	29.986 
15:30	83.0	83.0	80.6	20	37.8	2	5	248	0.00	29.979 
15:35	83.2	83.2	80.7	20	37.9	3	8	248	0.00	29.978 
15:40	83.2	83.2	80.7	19	36.6	2	6	270	0.00	29.977 
15:45	83.0	83.0	80.7	22	40.2	3	9	248	0.00	29.977 
15:50	83.0	83.0	80.5	19	36.5	4	10	248	0.00	29.976 
15:55	83.2	83.2	80.7	21	39.2	2	6	292	0.00	29.974 
16:00	83.4	83.4	80.8	20	38.1	2	7	248	0.00	29.972 
16:05	83.4	83.4	80.8	19	36.8	3	7	248	0.00	29.973 
16:10	83.4	83.4	80.8	19	36.8	2	5	248	0.00	29.967 
16:15	83.4	83.4	80.9	21	39.3	2	6	270	0.00	29.968 
16:20	83.4	83.4	80.8	19	36.8	3	6	248	0.00	29.970 
16:25	83.4	83.4	80.8	20	38.1	3	7	248	0.00	29.967 
16:30	83.2	83.2	80.7	20	37.9	3	7	248	0.00	29.968 
16:35	83.0	83.0	80.6	20	37.8	2	5	248	0.00	29.963 
16:40	83.0	83.0	80.6	20	37.8	3	7	248	0.00	29.962 
16:45	82.8	82.8	80.4	19	36.3	4	12	248	0.00	29.961 
16:50	82.6	82.6	80.3	20	37.4	3	6	248	0.00	29.961 
16:55	82.6	82.6	80.3	20	37.4	4	11	248	0.00	29.960 
17:00	82.6	82.6	80.3	21	38.7	3	7	270	0.00	29.959 
17:05	82.6	82.6	80.3	20	37.4	3	6	248	0.00	29.960 
17:10	82.6	82.6	80.3	20	37.4	3	6	270	0.00	29.961 
17:15	82.8	82.8	80.4	20	37.6	3	5	248	0.00	29.958 
17:20	82.8	82.8	80.4	20	37.6	2	7	248	0.00	29.954 
17:25	82.6	82.6	80.3	20	37.4	3	9	248	0.00	29.953 
17:30	82.4	82.4	80.2	21	38.5	3	6	248	0.00	29.952 
17:35	82.4	82.4	80.1	20	37.3	3	7	248	0.00	29.950 
17:40	82.4	82.4	80.2	21	38.5	1	3	248	0.00	29.951 
17:45	82.4	82.4	80.1	20	37.3	2	7	248	0.00	29.950 
17:50	82.2	82.2	80.0	20	37.1	2	9	248	0.00	29.948 
17:55	82.0	82.0	79.9	21	38.2	2	7	248	0.00	29.947 
18:00	81.6	81.6	79.7	22	39.0	3	10	248	0.00	29.947 
18:05	81.4	81.4	79.6	22	38.9	3	6	248	0.00	29.940 
18:10	81.2	81.2	79.4	22	38.7	1	5	248	0.00	29.938 
18:15	81.1	81.1	79.4	23	39.8	3	9	270	0.00	29.937 
18:20	81.1	81.1	79.4	22	38.6	2	5	248	0.00	29.937 
18:25	81.1	81.1	79.4	22	38.6	2	6	248	0.00	29.937 
18:30	80.9	80.9	79.2	22	38.5	2	6	248	0.00	29.929 
18:35	80.7	80.7	79.1	22	38.3	2	9	248	0.00	29.931 
18:40	80.5	80.5	79.0	22	38.1	3	8	248	0.00	29.932 
18:45	80.3	80.3	78.9	22	38.0	3	7	248	0.00	29.934 
18:50	80.3	80.3	78.9	23	39.1	2	4	248	0.00	29.933 
18:55	80.1	80.1	78.8	23	38.9	3	10	248	0.00	29.932 
19:00	79.9	79.9	78.7	23	38.8	2	6	248	0.00	29.932 
19:05	79.8	79.8	78.6	23	38.7	3	6	248	0.00	29.924 
19:10	79.6	79.6	78.5	23	38.5	2	7	248	0.00	29.923 
19:15	79.6	79.6	78.5	23	38.5	3	11	248	0.00	29.925 
19:20	79.2	79.2	78.4	24	39.3	2	9	248	0.00	29.923 
19:25	78.8	78.8	78.1	24	38.9	2	5	270	0.00	29.922 
19:30	78.6	78.6	78.0	24	38.8	2	6	248	0.00	29.920 
19:35	78.5	78.5	78.0	25	39.7	2	6	248	0.00	29.919 
19:40	78.3	78.3	77.9	25	39.6	2	7	248	0.00	29.920 
19:45	78.1	78.1	77.8	25	39.4	2	5	248	0.00	29.920 
19:50	77.9	77.9	77.7	25	39.2	2	7	248	0.00	29.919 
19:55	77.7	77.7	77.7	26	40.1	2	7	248	0.00	29.920 
20:00	77.6	77.6	77.7	26	40.0	2	6	248	0.00	29.919 
20:05	77.2	77.2	77.5	26	39.6	1	5	270	0.00	29.918 
20:10	76.8	76.8	77.4	27	40.3	2	5	248	0.00	29.917 
20:15	76.7	76.7	77.3	27	40.2	1	5	248	0.00	29.919 
20:20	76.3	76.3	77.2	27	39.8	1	4	248	0.00	29.920 
20:25	76.1	76.1	77.2	28	40.6	1	4	248	0.00	29.920 
20:30	75.8	75.8	77.1	29	41.3	1	5	248	0.00	29.919 
20:35	75.3	75.3	76.9	28	39.9	1	4	270	0.00	29.921 
20:40	75.1	75.1	76.9	29	40.7	1	3	225	0.00	29.920 
20:45	74.9	74.9	74.9	29	40.5	1	5	248	0.00	29.924 
20:50	74.7	74.7	74.7	29	40.3	1	3	248	0.00	29.923 
20:55	74.4	74.4	74.4	30	40.9	1	3	248	0.00	29.926 
21:00	74.2	74.2	74.2	30	40.8	1	4	248	0.00	29.926 
21:05	73.9	73.9	73.9	31	41.3	1	4	248	0.00	29.921 
21:10	73.7	73.7	73.7	31	41.2	1	3	248	0.00	29.920 
21:15	73.5	73.5	73.5	31	41.0	1	5	270	0.00	29.918 
21:20	73.3	73.3	73.3	31	40.8	1	3	248	0.00	29.923 
21:25	73.2	73.2	73.2	31	40.7	1	3	248	0.00	29.925 
21:30	73.0	73.0	73.0	31	40.6	1	4	225	0.00	29.925 
21:35	72.8	72.8	72.8	31	40.4	1	5	248	0.00	29.925 
21:40	72.7	72.7	72.7	31	40.3	1	3	248	0.00	29.923 
21:45	72.7	72.7	72.7	30	39.5	2	6	248	0.00	29.921 
21:50	72.5	72.5	72.5	31	40.1	2	4	248	0.00	29.922 
21:55	72.5	72.5	72.5	31	40.1	2	6	248	0.00	29.917 
22:00	72.3	72.3	72.3	31	40.0	1	3	248	0.00	29.917 
22:05	72.3	72.3	72.3	31	40.0	2	5	225	0.00	29.913 
22:10	72.0	72.0	72.0	31	39.7	1	4	248	0.00	29.912 
22:15	71.8	71.8	71.8	31	39.5	2	6	248	0.00	29.912 
22:20	71.6	71.6	71.6	32	40.2	1	4	248	0.00	29.912 
22:25	71.5	71.5	71.5	32	40.1	1	4	248	0.00	29.911 
22:30	71.3	71.3	71.3	32	39.9	2	5	248	0.00	29.912 
22:35	71.1	71.1	71.1	32	39.7	2	7	248	0.00	29.906 
22:40	70.9	70.9	70.9	33	40.3	1	5	248	0.00	29.907 
22:45	70.9	70.9	70.9	33	40.3	1	4	248	0.00	29.906 
22:50	70.6	70.6	70.6	34	40.9	1	4	248	0.00	29.907 
22:55	70.8	70.8	70.8	34	41.0	2	5	248	0.00	29.907 
23:00	70.6	70.6	70.6	34	40.9	2	6	248	0.00	29.906 
23:05	70.6	70.6	70.6	34	40.9	2	7	248	0.00	29.906 
23:10	70.4	70.4	70.4	34	40.7	2	5	248	0.00	29.907 
23:15	70.3	70.3	70.3	34	40.6	2	4	248	0.00	29.908 
23:20	70.1	70.1	70.1	35	41.2	2	4	248	0.00	29.910 
23:25	69.9	69.9	69.9	35	41.0	2	5	248	0.00	29.909 
23:30	69.8	69.8	69.8	35	40.9	2	4	248	0.00	29.908 
23:35	69.6	69.6	69.6	35	40.7	1	4	248	0.00	29.910 
23:40	69.4	69.4	69.4	35	40.6	1	4	248	0.00	29.909 
23:45	69.3	69.3	69.3	35	40.5	1	4	248	0.00	29.910 
23:50	69.3	69.3	69.3	35	40.5	2	5	248	0.00	29.908 
23:55	69.1	69.1	69.1	36	41.0	1	4	248	0.00	29.908 

CoCoRaHS
IN-AL-39
A2 Web Hosting
Creative Commons License
GoDaddy
Look for:

loaded 2017-12-13 19:59:01 • last modified 2010-11-18 10:43:29
Privacy PolicyDisclaimer
• wx.awcolley.com is powered by PmWiki v.2002016 •
• all content (unless otherwise noted) © 2017 A W Colley